Impacts TAF Board INFO
FOR SITUATIONAL AWARENESS. NOT TO BE USED FOR FLIGHT PLANNING PURPOSES.
IDs:

KMSP - Minneapolis-St Paul, MN, US

Issued at 2320 UTC 21 Jul 2017
Updated at 0230 UTC 22 Jul 2017
Potential Impact None Slight Moderate High
Time0153Z 22/03Z 22/04Z 22/05Z 22/06Z 22/07Z 22/08Z 22/09Z 22/10Z 22/11Z 22/12Z 22/13Z 22/14Z 22/15Z>>
Type OBS PRVL PRVL PRVL PRVL PRVL PRVL PRVL PRVL PRVL PRVL PRVL PRVL PRVL
VIS 10 >6 >6 >6 6 6 6 4 4 4 4 >6 >6 >6
CIG 250 -- -- -- -- -- -- 120 120 120 120 40 40 40
Cover BKN SCT SCT SCT SCT SCT SCT BKN BKN BKN BKN BKN BKN BKN
FltCat VFR VFR VFR VFR VFR VFR VFR MVFR MVFR MVFR MVFR VFR VFR VFR
WX -- -- -- -- BR BR BR BR VCSH BR VCSH BR VCSH BR VCSH -- -- --
WDir 100 170 170 170 140 140 140 130 130 130 130 VRB VRB VRB
WSpd 7 9 9 9 10 10 10 5 5 5 5 5 5 5
WGst -- -- -- -- -- -- -- -- -- -- -- -- -- --

Raw TAF
KMSP 212320Z 2200/2306 17009KT P6SM FEW025 SCT150
  FM220600 14010KT 6SM BR SCT030 SCT120
  FM220900 13005KT 4SM BR VCSH SCT010 BKN120
  FM221300 VRB05KT P6SM SCT015 BKN040
  FM221700 28007KT P6SM SCT040


Raw METAR
KMSP 220153Z 10007KT 10SM FEW065 SCT150 BKN250 26/19 A2983 RMK AO2 SLP098 T02610194
KMSP 220053Z 14006KT 10SM SCT035 BKN065 BKN150 27/19 A2981 RMK AO2 SLP088 T02670194
KMSP 212353Z 15009KT 10SM SCT035 BKN065 BKN150 27/20 A2980 RMK AO2 SLP086 T02720200 10283 20239 58013

METAR Board
Radar Display
Forecast Discussion

FOR SITUATIONAL AWARENESS. NOT TO BE USED FOR FLIGHT PLANNING PURPOSES.